Quick Links (Output Below):   Max & Min Temps   /   Climate Reports   /   Zone Forecasts
River Forecasts   /   Forestry Forecasts   /   Aviation Forecasts   /   Radars   /   Features

Terminal Aerodrome Forecast (Pine Bluff)

Pick a Site:
Arkadelphia | El Dorado | Fayetteville | Fort Smith | Harrison | Highfill | Hot Springs | Jonesboro
Little Rock | Monticello | Mountain Home | Pine Bluff | Texarkana
 Forecast 

KPBF 300934Z 3010/3106 VRB03KT P6SM SCT250
      TEMPO 3010/3013 5SM BR SCT005
     FM301500 05006KT P6SM FEW050 SCT250
     FM301900 08007KT P6SM SCT050 BKN250=


 Latest METARs (Observations) 
How to Decode METARs
10Z KPBF 300953Z AUTO 00000KT 10SM CLR 24/23 A3003 RMK AO2 SLP166
         T02390228
         
09Z KPBF 300853Z AUTO 00000KT 10SM CLR 24/23 A3003 RMK AO2 SLP165
         T02390228 56008
         
08Z KPBF 300753Z AUTO 00000KT 10SM CLR 24/23 A3003 RMK AO2 SLP166
         T02390228
         
07Z KPBF 300653Z AUTO 00000KT 10SM CLR 24/23 A3003 RMK AO2 SLP167
         T02440228
         
06Z KPBF 300553Z AUTO 01003KT 10SM CLR 24/23 A3005 RMK AO2 SLP173
         T02440228 10272 20239 403440239 50002
         
05Z KPBF 300453Z AUTO 36003KT 10SM CLR 24/23 A3005 RMK AO2 SLP173
         T02440228
         
04Z KPBF 300353Z AUTO 00000KT 10SM CLR 24/23 A3005 RMK AO2 SLP172
         T02440228
         
03Z KPBF 300253Z AUTO 00000KT 10SM CLR 24/23 A3004 RMK AO2 SLP171
         T02440228 53004
         
02Z KPBF 300153Z AUTO 36003KT 10SM CLR 24/22 A3003 RMK AO2 SLP166
         T02440222
         
01Z KPBF 300053Z AUTO 00000KT 10SM CLR 26/22 A3003 RMK AO2 SLP164
         T02560222
         
***** Today's Observations (Above) *****


Back to Main Page
http://www.srh.noaa.gov/lzk/qfcst.php

USA.gov is the U.S. government's official web portal to all federal, state and local government web resources and services.